createdAt,value
2022-10-07T00:01:07.219Z,101791.94
2022-10-07T00:03:35.879Z,101785.72
2022-10-07T00:06:07.005Z,101798.13
2022-10-07T00:08:37.637Z,101790.06
2022-10-07T00:11:08.060Z,101792.47
2022-10-07T00:13:38.901Z,101795.84
2022-10-07T00:16:10.557Z,101791.72
2022-10-07T00:18:40.241Z,101797.94
2022-10-07T00:21:11.319Z,101798.91
2022-10-07T00:23:39.900Z,101796.53
2022-10-07T00:26:09.285Z,101805.91
2022-10-07T00:28:38.192Z,101805.06
2022-10-07T00:31:10.728Z,101790.88
2022-10-07T00:33:40.651Z,101791.84
2022-10-07T00:36:09.392Z,101797.03
2022-10-07T00:38:37.393Z,101796.63
2022-10-07T00:41:05.673Z,101804.38
2022-10-07T00:43:34.159Z,101802.63
2022-10-07T00:46:07.699Z,101795.13
2022-10-07T00:48:39.343Z,101805.50
2022-10-07T00:51:09.450Z,101803.88
2022-10-07T00:53:40.677Z,101796.66
2022-10-07T00:56:09.050Z,101803.22
2022-10-07T00:58:39.270Z,101787.44
2022-10-07T01:01:07.478Z,101801.53
2022-10-07T01:03:37.449Z,101797.63
2022-10-07T01:06:06.393Z,101803.28
2022-10-07T01:08:35.037Z,101796.47
2022-10-07T01:11:14.928Z,101791.41
2022-10-07T01:13:53.974Z,101795.22
2022-10-07T01:16:30.520Z,101782.28
2022-10-07T01:19:11.846Z,101794.31
2022-10-07T01:21:46.602Z,101787.44
2022-10-07T01:24:33.382Z,101791.03
2022-10-07T01:27:05.770Z,101793.69
2022-10-07T01:29:39.130Z,101795.50
2022-10-07T01:32:13.374Z,101789.66
2022-10-07T01:34:43.934Z,101793.88
2022-10-07T01:37:16.437Z,101797.34
2022-10-07T01:39:49.988Z,101794.00
2022-10-07T01:42:20.897Z,101802.63
2022-10-07T01:44:50.994Z,101795.25
2022-10-07T01:47:19.017Z,101795.31
2022-10-07T01:49:47.006Z,101795.25
2022-10-07T01:52:31.113Z,101793.25
2022-10-07T01:55:28.636Z,101791.47
2022-10-07T01:58:09.287Z,101795.75
2022-10-07T02:00:43.248Z,101793.22
2022-10-07T02:03:34.162Z,101800.22
2022-10-07T02:06:11.899Z,101807.44
2022-10-07T02:08:45.654Z,101812.66
2022-10-07T02:11:17.107Z,101809.50
2022-10-07T02:13:58.013Z,101808.59
2022-10-07T02:16:31.078Z,101814.59
2022-10-07T02:19:02.222Z,101821.34
2022-10-07T02:21:33.097Z,101818.00
2022-10-07T02:24:01.886Z,101825.69
2022-10-07T02:26:31.526Z,101816.25
2022-10-07T02:29:05.461Z,101824.13
2022-10-07T02:31:35.502Z,101819.84
2022-10-07T02:34:06.074Z,101811.88
2022-10-07T02:36:39.336Z,101828.78
2022-10-07T02:39:08.400Z,101835.00
2022-10-07T02:41:43.661Z,101831.56
2022-10-07T02:44:21.784Z,101825.69
2022-10-07T02:46:54.822Z,101835.22
2022-10-07T02:49:25.294Z,101835.41
2022-10-07T02:51:57.781Z,101834.63
2022-10-07T02:54:30.836Z,101833.75
2022-10-07T02:57:01.354Z,101838.06
2022-10-07T02:59:33.980Z,101833.09
2022-10-07T03:02:04.784Z,101841.88
2022-10-07T03:04:32.820Z,101837.66
2022-10-07T03:07:01.307Z,101838.72
2022-10-07T03:09:30.699Z,101820.66
2022-10-07T03:11:58.728Z,101825.06
2022-10-07T03:14:26.723Z,101826.00
2022-10-07T03:16:56.027Z,101821.47
2022-10-07T03:19:23.998Z,101816.38
2022-10-07T03:21:51.887Z,101816.44
2022-10-07T03:24:19.805Z,101813.03
2022-10-07T03:26:47.757Z,101812.31
2022-10-07T03:29:16.084Z,101814.16
2022-10-07T03:31:44.059Z,101806.66
2022-10-07T03:34:13.444Z,101811.84
2022-10-07T03:36:41.444Z,101818.03
2022-10-07T03:39:09.369Z,101807.81
2022-10-07T03:41:37.354Z,101802.75
2022-10-07T03:44:05.668Z,101800.41
2022-10-07T03:46:33.675Z,101796.94
2022-10-07T03:49:01.974Z,101793.66
2022-10-07T03:51:31.293Z,101800.63
2022-10-07T03:53:59.403Z,101802.38
2022-10-07T03:56:27.330Z,101809.25
2022-10-07T03:58:55.645Z,101809.44
2022-10-07T04:01:23.899Z,101808.59
2022-10-07T04:03:51.866Z,101813.00
2022-10-07T04:06:20.050Z,101807.94
2022-10-07T04:08:52.806Z,101814.00
2022-10-07T04:11:20.778Z,101814.19
2022-10-07T04:13:49.277Z,101817.72
2022-10-07T04:16:17.439Z,101825.56
2022-10-07T04:18:46.687Z,101821.47
2022-10-07T04:21:14.634Z,101830.19
2022-10-07T04:23:43.364Z,101821.66
2022-10-07T04:26:13.691Z,101827.69
2022-10-07T04:28:42.086Z,101825.22
2022-10-07T04:31:11.629Z,101818.41
2022-10-07T04:33:40.397Z,101826.28
2022-10-07T04:36:10.507Z,101806.78
2022-10-07T04:38:38.403Z,101832.00
2022-10-07T04:41:07.986Z,101829.94
2022-10-07T04:43:37.293Z,101832.00
2022-10-07T04:46:08.011Z,101842.03
2022-10-07T04:48:36.547Z,101846.78
2022-10-07T04:51:05.600Z,101837.16
2022-10-07T04:53:33.585Z,101845.44
2022-10-07T04:56:01.981Z,101848.28
2022-10-07T04:58:30.567Z,101848.84
2022-10-07T05:01:02.068Z,101847.91
2022-10-07T05:03:31.361Z,101850.84
2022-10-07T05:06:05.796Z,101851.41
2022-10-07T05:08:34.759Z,101856.31
2022-10-07T05:11:04.066Z,101856.97
2022-10-07T05:13:32.562Z,101862.66
2022-10-07T05:16:03.077Z,101864.63
2022-10-07T05:18:33.430Z,101852.69
2022-10-07T05:21:06.080Z,101857.28
2022-10-07T05:23:35.961Z,101855.47
2022-10-07T05:26:08.087Z,101864.03
2022-10-07T05:28:36.659Z,101856.38
2022-10-07T05:31:10.178Z,101867.06
2022-10-07T05:33:38.687Z,101865.41
2022-10-07T05:36:08.220Z,101869.69
2022-10-07T05:38:36.940Z,101873.56
2022-10-07T05:41:07.254Z,101873.25
2022-10-07T05:43:38.134Z,101888.34
2022-10-07T05:46:09.086Z,101890.53
2022-10-07T05:48:39.491Z,101895.63
2022-10-07T05:51:08.177Z,101899.31
2022-10-07T05:53:36.357Z,101903.72
2022-10-07T05:56:06.733Z,101911.59
2022-10-07T05:58:36.283Z,101898.38
2022-10-07T06:01:10.002Z,101913.91
2022-10-07T06:03:42.768Z,101901.75
2022-10-07T06:06:11.461Z,101912.09
2022-10-07T06:08:39.369Z,101911.28
2022-10-07T06:11:25.836Z,101905.31
2022-10-07T06:13:55.606Z,101901.06
2022-10-07T06:16:24.777Z,101906.91
2022-10-07T06:18:55.075Z,101903.38
2022-10-07T06:21:27.907Z,101899.25
2022-10-07T06:23:57.983Z,101893.53
2022-10-07T06:26:26.263Z,101891.50
2022-10-07T06:28:54.238Z,101890.28
2022-10-07T06:31:25.393Z,101887.19
2022-10-07T06:33:55.441Z,101889.34
2022-10-07T06:36:23.366Z,101896.50
2022-10-07T06:38:53.093Z,101904.38
2022-10-07T06:41:21.733Z,101899.13
2022-10-07T06:43:50.182Z,101907.34
2022-10-07T06:46:19.832Z,101898.56
2022-10-07T06:48:48.097Z,101900.22
2022-10-07T06:51:19.235Z,101900.78
2022-10-07T06:53:51.534Z,101900.00
2022-10-07T06:56:19.681Z,101897.16
2022-10-07T06:58:49.840Z,101899.91
2022-10-07T07:01:17.931Z,101898.50
2022-10-07T07:03:45.920Z,101902.59
2022-10-07T07:06:14.961Z,101893.19
2022-10-07T07:08:45.977Z,101911.38
2022-10-07T07:11:40.733Z,101900.88
2022-10-07T07:14:09.847Z,101902.63
2022-10-07T07:16:38.119Z,101899.81
2022-10-07T07:19:08.835Z,101902.13
2022-10-07T07:21:38.322Z,101901.88
2022-10-07T07:24:08.164Z,101902.41
2022-10-07T07:26:37.895Z,101890.81
2022-10-07T07:29:07.593Z,101912.75
2022-10-07T07:31:37.429Z,101912.88
2022-10-07T07:34:09.214Z,101915.31
2022-10-07T07:36:37.397Z,101918.56
2022-10-07T07:39:09.822Z,101900.59
2022-10-07T07:41:40.700Z,101913.22
2022-10-07T07:44:12.679Z,101904.63
2022-10-07T07:46:43.356Z,101909.38
2022-10-07T07:49:13.130Z,101905.91
2022-10-07T07:51:43.157Z,101902.59
2022-10-07T07:54:13.733Z,101895.25
2022-10-07T07:56:41.747Z,101897.16
2022-10-07T07:59:09.722Z,101899.38
2022-10-07T08:01:37.746Z,101892.44
2022-10-07T08:04:05.818Z,101901.25
2022-10-07T08:06:34.659Z,101905.97
2022-10-07T08:09:02.673Z,101903.66
2022-10-07T08:11:32.923Z,101888.22
2022-10-07T08:14:01.249Z,101896.91
2022-10-07T08:16:30.805Z,101889.28
2022-10-07T08:18:59.378Z,101884.50
2022-10-07T08:21:33.002Z,101887.94
2022-10-07T08:24:02.820Z,101887.13
2022-10-07T08:26:33.558Z,101877.16
2022-10-07T08:29:02.295Z,101876.75
2022-10-07T08:31:31.112Z,101876.44
2022-10-07T08:34:00.990Z,101880.31
2022-10-07T08:36:32.755Z,101869.06
2022-10-07T08:39:01.345Z,101865.97
2022-10-07T08:41:42.507Z,101866.91
2022-10-07T08:44:20.103Z,101859.72
2022-10-07T08:46:57.301Z,101863.66
2022-10-07T08:49:31.428Z,101867.03
2022-10-07T08:52:05.372Z,101855.94
2022-10-07T08:54:34.618Z,101857.97
2022-10-07T08:57:14.500Z,101857.53
2022-10-07T08:59:50.392Z,101851.69
2022-10-07T09:02:31.193Z,101857.09
2022-10-07T09:05:06.407Z,101859.25
2022-10-07T09:07:37.370Z,101856.41
2022-10-07T09:10:22.609Z,101853.88
2022-10-07T09:12:58.144Z,101854.44
2022-10-07T09:15:36.028Z,101853.50
2022-10-07T09:18:08.483Z,101848.97
2022-10-07T09:20:42.972Z,101844.31
2022-10-07T09:23:15.495Z,101844.41
2022-10-07T09:25:44.604Z,101842.38
2022-10-07T09:28:18.730Z,101836.91
2022-10-07T09:30:46.775Z,101831.84
2022-10-07T09:33:17.568Z,101837.09
2022-10-07T09:35:57.475Z,101828.47
2022-10-07T09:38:36.014Z,101821.31
2022-10-07T09:41:19.695Z,101820.22
2022-10-07T09:44:03.889Z,101817.06
2022-10-07T09:46:46.573Z,101814.38
2022-10-07T09:49:39.722Z,101806.63
2022-10-07T09:52:15.908Z,101810.72
2022-10-07T09:54:45.772Z,101806.94
2022-10-07T09:57:27.077Z,101803.53
2022-10-07T10:00:17.578Z,101794.19
2022-10-07T10:02:49.670Z,101791.47
2022-10-07T10:05:25.001Z,101782.91
2022-10-07T10:07:59.962Z,101787.75
2022-10-07T10:10:30.537Z,101774.91
2022-10-07T10:13:00.778Z,101783.75
2022-10-07T10:15:40.211Z,101778.47
2022-10-07T10:18:28.602Z,101761.13
2022-10-07T10:20:56.802Z,101750.28
2022-10-07T10:23:31.446Z,101752.13
2022-10-07T10:26:34.005Z,101753.66
2022-10-07T10:29:15.042Z,101737.34
2022-10-07T10:32:04.228Z,101739.72
2022-10-07T10:34:43.731Z,101740.41
2022-10-07T10:37:18.551Z,101723.59
2022-10-07T10:39:58.598Z,101729.53
2022-10-07T10:42:34.165Z,101724.28
2022-10-07T10:45:15.570Z,101728.16
2022-10-07T10:48:01.709Z,101713.97
2022-10-07T10:50:38.851Z,101709.00
2022-10-07T10:53:19.846Z,101700.50
2022-10-07T10:56:08.602Z,101694.78
2022-10-07T10:58:53.024Z,101697.72
2022-10-07T11:01:28.053Z,101701.31
2022-10-07T11:04:39.655Z,101692.75
2022-10-07T11:07:12.317Z,101672.13
2022-10-07T11:09:44.143Z,101667.16
2022-10-07T11:12:23.071Z,101669.75
2022-10-07T11:14:57.724Z,101665.97
2022-10-07T11:17:31.452Z,101661.13
2022-10-07T11:20:13.911Z,101650.56
2022-10-07T11:22:47.792Z,101652.22
2022-10-07T11:25:25.954Z,101650.53
2022-10-07T11:27:56.869Z,101647.19
2022-10-07T11:30:25.866Z,101644.69
2022-10-07T11:33:00.229Z,101623.13
2022-10-07T11:35:32.871Z,101632.31
2022-10-07T11:38:07.564Z,101629.38
2022-10-07T11:40:42.391Z,101624.38
2022-10-07T11:43:19.974Z,101616.28
2022-10-07T11:45:52.518Z,101605.03
2022-10-07T11:48:24.417Z,101611.84
2022-10-07T11:50:59.895Z,101613.50
2022-10-07T11:53:32.482Z,101614.38
2022-10-07T11:56:04.695Z,101613.09
2022-10-07T11:58:36.271Z,101619.66
2022-10-07T12:01:41.803Z,101611.84
2022-10-07T12:04:42.782Z,101605.31
2022-10-07T12:07:59.540Z,101621.06
2022-10-07T12:10:29.979Z,101614.91
2022-10-07T12:13:00.708Z,101603.50
2022-10-07T12:15:31.809Z,101596.53
2022-10-07T12:18:25.516Z,101607.69
2022-10-07T12:21:03.873Z,101589.31
2022-10-07T12:24:11.047Z,101609.22
2022-10-07T12:26:45.960Z,101591.66
2022-10-07T12:29:36.770Z,101592.63
2022-10-07T12:32:05.021Z,101599.34
2022-10-07T12:34:43.474Z,101598.63
2022-10-07T12:37:50.474Z,101593.75
2022-10-07T12:40:26.000Z,101589.19
2022-10-07T12:43:00.042Z,101590.41
2022-10-07T12:45:30.611Z,101590.69
2022-10-07T12:48:01.820Z,101591.53
2022-10-07T12:50:33.597Z,101580.25
2022-10-07T12:53:04.191Z,101580.13
2022-10-07T12:55:38.194Z,101585.13
2022-10-07T12:58:38.176Z,101565.09
2022-10-07T13:01:22.514Z,101564.53
2022-10-07T13:04:25.964Z,101578.59
2022-10-07T13:07:43.680Z,101573.44
2022-10-07T13:10:48.240Z,101561.44
2022-10-07T13:13:20.275Z,101564.53
2022-10-07T13:15:54.939Z,101567.59
2022-10-07T13:18:30.350Z,101560.91
2022-10-07T13:21:19.772Z,101549.34
2022-10-07T13:23:51.857Z,101557.97
2022-10-07T13:26:23.321Z,101548.38
2022-10-07T13:28:52.810Z,101547.53
2022-10-07T13:31:22.937Z,101550.44
2022-10-07T13:33:51.710Z,101555.09
2022-10-07T13:36:23.162Z,101557.56
2022-10-07T13:38:53.780Z,101552.28
2022-10-07T13:41:28.353Z,101543.22
2022-10-07T13:44:00.874Z,101546.13
2022-10-07T13:46:31.258Z,101542.50
2022-10-07T13:49:00.240Z,101542.78
2022-10-07T13:51:32.926Z,101544.41
2022-10-07T13:54:03.082Z,101536.09
2022-10-07T13:56:36.270Z,101529.69
2022-10-07T13:59:06.850Z,101529.00
2022-10-07T14:01:38.902Z,101518.59
2022-10-07T14:04:19.066Z,101524.16
2022-10-07T14:06:53.700Z,101517.19
2022-10-07T14:09:26.424Z,101513.72
2022-10-07T14:11:59.272Z,101531.22
2022-10-07T14:14:32.616Z,101521.75
2022-10-07T14:17:01.141Z,101520.66
2022-10-07T14:19:33.090Z,101525.81
2022-10-07T14:22:03.848Z,101522.91
2022-10-07T14:24:32.620Z,101519.25
2022-10-07T14:27:02.166Z,101521.38
2022-10-07T14:29:38.823Z,101522.91
2022-10-07T14:32:30.033Z,101520.50
2022-10-07T14:35:15.505Z,101528.56
2022-10-07T14:37:43.437Z,101529.13
2022-10-07T14:40:20.650Z,101522.41
2022-10-07T14:42:52.846Z,101521.81
2022-10-07T14:45:22.500Z,101519.31
2022-10-07T14:47:51.272Z,101528.25
2022-10-07T14:50:20.518Z,101525.91
2022-10-07T14:52:52.456Z,101517.44
2022-10-07T14:55:24.146Z,101526.28
2022-10-07T14:57:54.088Z,101521.31
2022-10-07T15:00:23.872Z,101518.53
2022-10-07T15:02:53.231Z,101514.91
2022-10-07T15:05:22.742Z,101517.19
2022-10-07T15:07:51.236Z,101517.19
2022-10-07T15:10:21.326Z,101520.25
2022-10-07T15:12:49.497Z,101523.03
2022-10-07T15:15:19.386Z,101527.88
2022-10-07T15:17:48.080Z,101510.81
2022-10-07T15:20:17.371Z,101523.31
2022-10-07T15:22:46.441Z,101519.19
2022-10-07T15:25:15.802Z,101520.75
2022-10-07T15:27:44.008Z,101517.06
2022-10-07T15:30:13.481Z,101524.41
2022-10-07T15:32:43.066Z,101519.53
2022-10-07T15:35:11.356Z,101532.16
2022-10-07T15:37:39.502Z,101534.28
2022-10-07T15:40:08.919Z,101535.00
2022-10-07T15:42:37.271Z,101530.88
2022-10-07T15:45:05.719Z,101538.91
2022-10-07T15:47:34.563Z,101529.50
2022-10-07T15:50:03.851Z,101539.13
2022-10-07T15:52:31.808Z,101542.44
2022-10-07T15:55:03.736Z,101540.19
2022-10-07T15:57:34.629Z,101539.13
2022-10-07T16:00:02.754Z,101541.03
2022-10-07T16:02:30.678Z,101543.25
2022-10-07T16:04:58.680Z,101547.50
2022-10-07T16:07:29.169Z,101543.53
2022-10-07T16:09:57.164Z,101557.59
2022-10-07T16:12:25.205Z,101554.97
2022-10-07T16:14:53.200Z,101556.53
2022-10-07T16:17:21.151Z,101560.09
2022-10-07T16:19:49.147Z,101561.28
2022-10-07T16:22:17.246Z,101553.88
2022-10-07T16:24:46.546Z,101557.88
2022-10-07T16:27:14.505Z,101557.34
2022-10-07T16:29:59.753Z,101552.94
2022-10-07T16:32:27.665Z,101555.56
2022-10-07T16:34:55.589Z,101558.31
2022-10-07T16:37:23.514Z,101559.44
2022-10-07T16:39:52.774Z,101560.06
2022-10-07T16:42:20.685Z,101573.28
2022-10-07T16:44:50.864Z,101566.56
2022-10-07T16:47:18.862Z,101564.63
2022-10-07T16:49:46.790Z,101581.41
2022-10-07T16:52:14.701Z,101575.56
2022-10-07T16:54:43.300Z,101577.16
2022-10-07T16:57:13.795Z,101582.84
2022-10-07T16:59:41.717Z,101550.09
2022-10-07T17:02:10.137Z,101572.31
2022-10-07T17:04:38.038Z,101577.56
2022-10-07T17:07:06.070Z,101579.06
2022-10-07T17:09:34.026Z,101575.09
2022-10-07T17:12:02.190Z,101578.22
2022-10-07T17:14:33.177Z,101575.94
2022-10-07T17:17:01.907Z,101581.81
2022-10-07T17:19:30.238Z,101580.34
2022-10-07T17:21:59.721Z,101581.63
2022-10-07T17:24:27.725Z,101577.00
2022-10-07T17:26:56.343Z,101582.63
2022-10-07T17:29:26.456Z,101572.75
2022-10-07T17:31:56.529Z,101575.47
2022-10-07T17:34:24.651Z,101576.00
2022-10-07T17:36:52.860Z,101578.81
2022-10-07T17:39:21.034Z,101567.25
2022-10-07T17:41:49.078Z,101573.06
2022-10-07T17:44:17.079Z,101575.75
2022-10-07T17:46:45.504Z,101575.09
2022-10-07T17:49:14.904Z,101571.03
2022-10-07T17:51:44.086Z,101565.50
2022-10-07T17:54:14.011Z,101568.97
2022-10-07T17:56:45.206Z,101569.44
2022-10-07T17:59:13.148Z,101569.53
2022-10-07T18:01:42.256Z,101570.97
2022-10-07T18:04:12.979Z,101572.84
2022-10-07T18:06:43.974Z,101579.88
2022-10-07T18:09:15.088Z,101574.00
2022-10-07T18:12:00.489Z,101565.66
2022-10-07T18:14:49.829Z,101580.00
2022-10-07T18:17:20.627Z,101571.97
2022-10-07T18:19:48.546Z,101575.53
2022-10-07T18:22:17.842Z,101571.44
2022-10-07T18:24:46.216Z,101570.22
2022-10-07T18:27:14.266Z,101577.13
2022-10-07T18:29:42.212Z,101574.59
2022-10-07T18:32:11.414Z,101573.88
2022-10-07T18:34:39.338Z,101571.44
2022-10-07T18:37:07.258Z,101571.81
2022-10-07T18:39:36.553Z,101567.38
2022-10-07T18:42:05.342Z,101563.22
2022-10-07T18:44:33.283Z,101563.03
2022-10-07T18:47:01.259Z,101554.25
2022-10-07T18:49:29.205Z,101558.44
2022-10-07T18:51:57.154Z,101562.56
2022-10-07T18:54:25.131Z,101557.34
2022-10-07T18:56:54.484Z,101564.34
2022-10-07T18:59:22.411Z,101559.47
2022-10-07T19:01:51.211Z,101563.22
2022-10-07T19:04:20.405Z,101567.69
2022-10-07T19:06:48.655Z,101560.75
2022-10-07T19:09:18.959Z,101548.16
2022-10-07T19:11:46.977Z,101548.63
2022-10-07T19:14:16.118Z,101556.78
2022-10-07T19:16:45.939Z,101562.94
2022-10-07T19:19:17.199Z,101551.38
2022-10-07T19:21:46.670Z,101558.13
2022-10-07T19:24:15.395Z,101570.44
2022-10-07T19:26:45.221Z,101562.78
2022-10-07T19:29:14.375Z,101555.94
2022-10-07T19:31:45.580Z,101553.00
2022-10-07T19:34:15.677Z,101556.56
2022-10-07T19:36:47.159Z,101561.19
2022-10-07T19:39:16.197Z,101561.34
2022-10-07T19:41:44.226Z,101558.22
2022-10-07T19:44:12.553Z,101558.97
2022-10-07T19:46:40.925Z,101565.94
2022-10-07T19:49:10.730Z,101560.16
2022-10-07T19:51:41.974Z,101556.53
2022-10-07T19:54:10.928Z,101561.19
2022-10-07T19:56:40.053Z,101553.03
2022-10-07T19:59:09.806Z,101559.34
2022-10-07T20:01:39.510Z,101555.06
2022-10-07T20:04:12.799Z,101559.63
2022-10-07T20:06:40.891Z,101555.66
2022-10-07T20:09:11.893Z,101562.22
2022-10-07T20:11:39.857Z,101565.75
2022-10-07T20:14:08.174Z,101558.00
2022-10-07T20:16:37.360Z,101553.88
2022-10-07T20:19:06.971Z,101553.97
2022-10-07T20:21:39.411Z,101560.13
2022-10-07T20:24:08.731Z,101563.03
2022-10-07T20:26:38.510Z,101559.44
2022-10-07T20:29:10.279Z,101562.84
2022-10-07T20:31:41.314Z,101557.16
2022-10-07T20:34:12.551Z,101548.25
2022-10-07T20:36:42.149Z,101554.81
2022-10-07T20:39:33.385Z,101559.78
2022-10-07T20:42:18.773Z,101575.31
2022-10-07T20:44:47.721Z,101569.53
2022-10-07T20:47:15.701Z,101574.06
2022-10-07T20:49:43.708Z,101564.31
2022-10-07T20:52:16.816Z,101559.69
2022-10-07T20:54:45.491Z,101558.03
2022-10-07T20:57:15.370Z,101564.13
2022-10-07T20:59:43.893Z,101556.28
2022-10-07T21:02:13.621Z,101562.44
2022-10-07T21:04:42.580Z,101556.03
2022-10-07T21:07:12.245Z,101560.31
2022-10-07T21:09:40.146Z,101564.75
2022-10-07T21:12:10.882Z,101563.66
2022-10-07T21:14:39.221Z,101552.66
2022-10-07T21:17:08.278Z,101552.09
2022-10-07T21:19:37.062Z,101561.44
2022-10-07T21:22:06.194Z,101562.78
2022-10-07T21:24:35.948Z,101555.97
2022-10-07T21:27:05.239Z,101548.91
2022-10-07T21:29:37.492Z,101551.66
2022-10-07T21:32:08.369Z,101549.13
2022-10-07T21:34:36.299Z,101549.28
2022-10-07T21:37:04.678Z,101547.19
2022-10-07T21:39:32.759Z,101544.25
2022-10-07T21:42:02.105Z,101542.09
2022-10-07T21:44:32.334Z,101540.09
2022-10-07T21:47:00.351Z,101533.69
2022-10-07T21:49:28.406Z,101529.50
2022-10-07T21:51:56.327Z,101521.22
2022-10-07T21:54:24.232Z,101512.56
2022-10-07T21:56:52.138Z,101522.91
2022-10-07T21:59:21.419Z,101509.59
2022-10-07T22:01:49.347Z,101519.06
2022-10-07T22:04:19.739Z,101507.16
2022-10-07T22:07:05.173Z,101502.94
2022-10-07T22:09:33.520Z,101503.28
2022-10-07T22:12:01.552Z,101497.56
2022-10-07T22:14:30.869Z,101502.28
2022-10-07T22:16:58.781Z,101496.75
2022-10-07T22:19:26.832Z,101485.72
2022-10-07T22:21:55.337Z,101502.63
2022-10-07T22:24:24.103Z,101495.81
2022-10-07T22:26:52.327Z,101509.00
2022-10-07T22:29:21.882Z,101503.97
2022-10-07T22:31:51.212Z,101510.94
2022-10-07T22:34:36.672Z,101504.66
2022-10-07T22:37:05.295Z,101502.63
2022-10-07T22:39:33.292Z,101506.16
2022-10-07T22:42:03.842Z,101501.94
2022-10-07T22:44:31.867Z,101508.50
2022-10-07T22:47:02.353Z,101511.25
2022-10-07T22:49:30.645Z,101500.41
2022-10-07T22:51:59.787Z,101506.38
2022-10-07T22:54:28.537Z,101505.94
2022-10-07T22:56:56.606Z,101501.22
2022-10-07T22:59:24.541Z,101501.72
2022-10-07T23:01:53.107Z,101501.38
2022-10-07T23:04:22.489Z,101491.94
2022-10-07T23:06:50.433Z,101493.59
2022-10-07T23:09:18.361Z,101491.88
2022-10-07T23:11:46.853Z,101479.94
2022-10-07T23:14:14.820Z,101481.81
2022-10-07T23:16:44.408Z,101473.06
2022-10-07T23:19:12.431Z,101474.53
2022-10-07T23:21:41.745Z,101487.00
2022-10-07T23:24:10.250Z,101490.97
2022-10-07T23:26:38.845Z,101482.25
2022-10-07T23:29:08.200Z,101487.97
2022-10-07T23:31:36.387Z,101476.63
2022-10-07T23:34:05.507Z,101466.63
2022-10-07T23:36:34.902Z,101480.69
2022-10-07T23:39:04.777Z,101478.94
2022-10-07T23:41:33.008Z,101476.88
2022-10-07T23:44:03.026Z,101465.13
2022-10-07T23:46:34.017Z,101472.38
2022-10-07T23:49:02.314Z,101466.72
2022-10-07T23:51:32.369Z,101471.09
2022-10-07T23:54:02.603Z,101470.03
2022-10-07T23:56:32.863Z,101479.81
2022-10-07T23:59:01.789Z,101469.41
